Time;durP1;ratioP1;P1;durP2;ratioP2;P2;SDS_P1;SDS_P2;PMS_P1;PMS_P2;Temp;Humidity;BMP_temperature;BMP_pressure;BME280_temperature;BME280_humidity;BME280_pressure;Samples;Min_cycle;Max_cycle;Signal;HPM_P1;HPM_P2
2023/06/10 00:02:09;;;;;;;0.15;0.15;;;;;;;21.80;53.68;101553.28;5064813;28;20025;-78
2023/06/10 00:04:36;;;;;;;0.13;0.13;;;;;;;21.79;53.99;101548.84;5073400;28;20017;-80
2023/06/10 00:07:08;;;;;;;0.10;0.10;;;;;;;21.77;53.72;101554.34;5065911;28;20025;-77
2023/06/10 00:09:38;;;;;;;0.00;0.00;;;;;;;21.75;53.70;101550.00;5065254;28;20093;-77
2023/06/10 00:12:06;;;;;;;0.28;0.28;;;;;;;21.68;54.67;101551.28;5065583;28;20047;-77
2023/06/10 00:14:33;;;;;;;0.20;0.20;;;;;;;21.62;54.73;101545.28;5064025;28;20033;-76
2023/06/10 00:16:59;;;;;;;0.10;0.10;;;;;;;21.58;54.41;101553.63;5061879;28;20056;-77
2023/06/10 00:19:25;;;;;;;0.20;0.20;;;;;;;21.55;55.31;101562.72;5063231;28;20032;-77
2023/06/10 00:21:52;;;;;;;1.10;0.57;;;;;;;21.50;55.76;101548.63;5063167;28;20045;-78
2023/06/10 00:24:18;;;;;;;0.00;0.00;;;;;;;21.46;56.29;101557.84;5063984;28;20017;-79
2023/06/10 00:26:44;;;;;;;0.10;0.10;;;;;;;21.41;54.99;101559.88;5056211;28;20045;-79
2023/06/10 00:29:10;;;;;;;0.32;0.32;;;;;;;21.36;55.54;101548.50;5062323;28;20032;-79
2023/06/10 00:31:38;;;;;;;0.50;0.50;;;;;;;21.32;56.44;101559.44;5064560;28;20029;-80
2023/06/10 00:34:04;;;;;;;0.20;0.20;;;;;;;21.28;55.90;101554.31;5067072;28;20526;-78
2023/06/10 00:36:30;;;;;;;0.03;0.03;;;;;;;21.23;55.58;101553.69;5061331;28;20068;-79
2023/06/10 00:38:57;;;;;;;0.30;0.28;;;;;;;21.20;56.40;101549.34;5058486;28;20033;-78
2023/06/10 00:41:23;;;;;;;0.00;0.00;;;;;;;21.16;55.47;101554.00;5072565;28;20075;-79
2023/06/10 00:43:49;;;;;;;0.20;0.20;;;;;;;21.11;56.44;101548.00;5063259;28;20036;-79
2023/06/10 00:46:18;;;;;;;0.28;0.28;;;;;;;21.09;56.05;101557.13;5055788;28;20056;-80
2023/06/10 00:48:46;;;;;;;0.05;0.05;;;;;;;21.05;56.54;101555.53;5065302;28;20032;-79
2023/06/10 00:51:12;;;;;;;0.30;0.30;;;;;;;21.01;55.62;101555.69;5059692;28;20089;-79
2023/06/10 00:53:41;;;;;;;0.45;0.45;;;;;;;20.98;56.77;101558.53;5054809;28;20021;-79
2023/06/10 00:56:07;;;;;;;0.10;0.10;;;;;;;20.94;56.57;101554.28;5068682;28;20036;-82
2023/06/10 00:58:33;;;;;;;0.10;0.10;;;;;;;20.91;56.15;101557.13;5073657;28;20048;-78
2023/06/10 01:01:00;;;;;;;0.10;0.10;;;;;;;20.88;56.66;101559.13;5066039;28;20029;-78
2023/06/10 01:03:26;;;;;;;0.60;0.20;;;;;;;20.84;56.87;101556.56;5062760;28;20021;-80
2023/06/10 01:06:01;;;;;;;0.00;0.00;;;;;;;20.84;56.63;101558.41;5064246;28;20409;-79
2023/06/10 01:11:43;;;;;;;0.15;0.15;;;;;;;20.77;56.45;101554.28;5063072;28;20523;-81
2023/06/10 01:14:10;;;;;;;0.10;0.10;;;;;;;20.72;56.37;101554.50;5068840;28;20040;-79
2023/06/10 01:16:36;;;;;;;0.10;0.10;;;;;;;20.69;55.93;101560.91;5051700;28;20029;-78
2023/06/10 01:19:03;;;;;;;0.55;0.55;;;;;;;20.67;57.41;101564.63;5039209;28;20034;-78
2023/06/10 01:21:30;;;;;;;0.10;0.10;;;;;;;20.63;56.16;101558.50;5049101;28;20026;-81
2023/06/10 01:23:57;;;;;;;1.40;0.43;;;;;;;20.60;56.95;101558.69;5043560;28;20022;-79
2023/06/10 01:26:29;;;;;;;0.20;0.20;;;;;;;20.59;56.86;101561.47;5037484;28;20014;-81
2023/06/10 01:28:59;;;;;;;;;;;;;;;20.69;57.67;101563.59;5036275;28;20041;-80
2023/06/10 01:31:42;;;;;;;0.00;0.00;;;;;;;20.58;56.37;101563.25;5042500;28;19917;-81
2023/06/10 01:34:12;;;;;;;0.32;0.32;;;;;;;20.49;56.57;101559.22;5033929;28;20598;-79
2023/06/10 01:36:40;;;;;;;0.10;0.10;;;;;;;20.46;56.97;101563.88;5043656;28;20014;-79
2023/06/10 01:39:11;;;;;;;0.10;0.10;;;;;;;20.44;58.03;101560.41;5041493;28;20025;-78
2023/06/10 01:41:37;;;;;;;0.10;0.10;;;;;;;20.40;57.75;101564.19;5048050;28;20083;-79
2023/06/10 01:44:04;;;;;;;0.98;0.93;;;;;;;20.38;57.35;101566.09;5046822;28;20088;-80
2023/06/10 01:46:30;;;;;;;0.10;0.10;;;;;;;20.35;56.55;101562.63;5045301;28;20061;-80
2023/06/10 01:48:56;;;;;;;0.13;0.13;;;;;;;20.33;57.47;101569.88;5047525;28;20114;-80
2023/06/10 01:51:22;;;;;;;0.63;0.63;;;;;;;20.32;57.96;101562.75;5046981;28;20109;-79
2023/06/10 01:53:48;;;;;;;0.03;0.03;;;;;;;20.28;57.61;101569.25;5048530;28;20021;-80
2023/06/10 01:56:18;;;;;;;0.10;0.10;;;;;;;20.28;57.01;101565.69;5041474;28;20033;-79
2023/06/10 01:58:46;;;;;;;0.63;0.63;;;;;;;20.27;56.88;101569.31;5050377;28;20029;-78
2023/06/10 02:01:13;;;;;;;0.43;0.43;;;;;;;20.24;57.08;101570.34;5054540;28;20032;-79
2023/06/10 02:03:40;;;;;;;0.08;0.08;;;;;;;20.24;56.27;101572.16;5050567;28;20025;-81
2023/06/10 02:06:06;;;;;;;0.20;0.20;;;;;;;20.22;56.43;101564.16;5047199;28;20025;-80
2023/06/10 02:08:32;;;;;;;0.00;0.00;;;;;;;20.21;56.69;101570.47;5036367;28;20037;-80
2023/06/10 02:10:58;;;;;;;0.00;0.00;;;;;;;20.17;57.35;101574.28;5037342;28;20054;-80
2023/06/10 02:13:24;;;;;;;0.00;0.00;;;;;;;20.15;57.01;101576.16;5045843;28;20057;-81
2023/06/10 02:15:50;;;;;;;0.30;0.30;;;;;;;20.13;56.64;101570.00;5047932;28;20029;-80
2023/06/10 02:18:20;;;;;;;0.00;0.00;;;;;;;20.11;57.27;101577.25;5045812;28;20033;-81
2023/06/10 02:20:46;;;;;;;0.30;0.30;;;;;;;20.09;57.96;101571.06;5050155;28;20033;-79
2023/06/10 02:23:12;;;;;;;0.10;0.10;;;;;;;20.03;57.60;101575.81;5027315;28;20121;-80
2023/06/10 02:25:39;;;;;;;0.10;0.10;;;;;;;20.02;57.60;101576.75;5031149;28;20110;-80
2023/06/10 02:28:05;;;;;;;0.10;0.10;;;;;;;19.98;57.08;101568.94;5027048;28;20030;-81
2023/06/10 02:30:32;;;;;;;0.10;0.10;;;;;;;19.94;57.58;101572.69;5025861;28;20030;-81
2023/06/10 02:32:59;;;;;;;0.20;0.20;;;;;;;19.94;57.13;101572.69;5030358;28;20044;-82
2023/06/10 02:35:25;;;;;;;0.08;0.08;;;;;;;19.91;57.29;101571.03;5036428;28;20057;-80
2023/06/10 02:37:51;;;;;;;0.10;0.10;;;;;;;19.90;56.94;101565.72;5035117;28;20033;-80
2023/06/10 02:40:17;;;;;;;0.00;0.00;;;;;;;19.87;56.85;101570.28;5030390;28;20030;-77
2023/06/10 02:42:43;;;;;;;0.00;0.00;;;;;;;19.86;57.03;101570.38;5024185;28;20451;-78
2023/06/10 02:45:09;;;;;;;0.20;0.20;;;;;;;19.85;56.89;101569.50;5033329;28;20038;-77
2023/06/10 02:47:39;;;;;;;0.00;0.00;;;;;;;19.84;57.04;101572.28;5027814;28;20030;-78
2023/06/10 02:50:06;;;;;;;0.10;0.10;;;;;;;19.78;56.67;101583.28;5032687;28;20076;-79
2023/06/10 02:52:32;;;;;;;0.00;0.00;;;;;;;19.78;56.33;101577.91;5035057;28;20053;-79
2023/06/10 02:54:58;;;;;;;0.30;0.30;;;;;;;19.75;56.43;101573.56;5033676;28;20033;-79
2023/06/10 02:57:24;;;;;;;0.00;0.00;;;;;;;19.73;56.83;101576.28;5029691;28;20083;-80
2023/06/10 02:59:51;;;;;;;0.03;0.03;;;;;;;19.71;56.50;101583.59;5020050;28;20041;-80
2023/06/10 03:02:17;;;;;;;0.10;0.10;;;;;;;19.68;56.90;101578.34;5027017;28;20025;-79
2023/06/10 03:04:44;;;;;;;0.25;0.25;;;;;;;19.67;56.57;101581.09;5028165;28;20041;-79
2023/06/10 03:07:11;;;;;;;0.20;0.20;;;;;;;19.66;56.36;101576.66;5030320;28;20026;-80
2023/06/10 03:09:37;;;;;;;0.00;0.00;;;;;;;19.62;56.46;101581.31;5024740;28;20065;-79
2023/06/10 03:12:03;;;;;;;0.08;0.08;;;;;;;19.60;56.44;101572.47;5023373;28;20034;-80
2023/06/10 03:14:29;;;;;;;1.08;1.05;;;;;;;19.59;56.33;101584.16;5032728;28;20063;-78
2023/06/10 03:16:56;;;;;;;0.10;0.10;;;;;;;19.55;56.52;101577.16;5021722;28;20026;-77
2023/06/10 03:19:23;;;;;;;0.10;0.10;;;;;;;19.54;56.37;101586.19;5026546;28;20038;-78
2023/06/10 03:22:06;;;;;;;0.00;0.00;;;;;;;19.52;56.04;101582.69;5027076;28;20026;-80
2023/06/10 03:24:32;;;;;;;0.63;0.55;;;;;;;19.50;56.17;101582.75;5033067;28;20042;-79
2023/06/10 03:26:58;;;;;;;0.00;0.00;;;;;;;19.49;56.29;101585.50;5020765;28;20038;-80
2023/06/10 03:29:24;;;;;;;0.10;0.10;;;;;;;19.48;56.12;101589.16;5025230;28;20119;-79
2023/06/10 03:31:50;;;;;;;0.00;0.00;;;;;;;19.47;56.11;101592.78;5029052;28;20042;-79
2023/06/10 03:34:16;;;;;;;0.10;0.10;;;;;;;19.46;56.10;101588.34;5019937;28;20048;-79
2023/06/10 03:36:43;;;;;;;0.10;0.10;;;;;;;19.46;55.79;101596.41;5030740;28;20065;-80
2023/06/10 03:39:09;;;;;;;0.63;0.63;;;;;;;19.45;56.02;101597.34;5025754;28;20080;-77
2023/06/10 03:41:36;;;;;;;0.77;0.15;;;;;;;19.43;56.05;101593.84;5024346;28;20034;-78
2023/06/10 03:44:02;;;;;;;0.25;0.25;;;;;;;19.43;56.09;101600.09;5019844;28;20030;-80
2023/06/10 03:46:28;;;;;;;0.10;0.10;;;;;;;19.40;56.39;101595.75;5023190;28;20034;-77
2023/06/10 03:48:54;;;;;;;0.00;0.00;;;;;;;19.40;56.36;101597.53;5025433;28;20030;-77
2023/06/10 03:51:20;;;;;;;0.17;0.17;;;;;;;19.39;56.20;101602.03;5023868;28;20462;-78
2023/06/10 03:53:46;;;;;;;0.00;0.00;;;;;;;19.40;56.52;101603.81;5022979;28;20068;-78
2023/06/10 03:56:12;;;;;;;0.10;0.10;;;;;;;19.39;56.05;101598.50;5015179;28;20036;-77
2023/06/10 03:58:38;;;;;;;0.40;0.40;;;;;;;19.38;56.09;101608.34;5029736;28;20034;-77
2023/06/10 04:01:05;;;;;;;0.10;0.10;;;;;;;19.39;56.38;101614.63;5022958;28;20090;-78
2023/06/10 04:03:31;;;;;;;0.45;0.45;;;;;;;19.38;56.28;101597.59;5025215;28;20546;-79
2023/06/10 04:05:58;;;;;;;4.10;0.60;;;;;;;19.39;56.38;101612.78;5014520;28;20073;-78
2023/06/10 04:08:24;;;;;;;0.00;0.00;;;;;;;19.39;56.52;101603.88;5021130;28;20053;-77
2023/06/10 04:10:50;;;;;;;0.00;0.00;;;;;;;19.39;56.16;101610.09;5022897;28;20026;-79
2023/06/10 04:13:16;;;;;;;0.00;0.00;;;;;;;19.39;56.62;101612.78;5016260;28;20046;-78
2023/06/10 04:15:42;;;;;;;0.00;0.00;;;;;;;19.40;56.97;101606.50;5017893;28;20038;-79
2023/06/10 04:18:08;;;;;;;0.65;0.65;;;;;;;19.42;56.43;101608.25;5036894;28;20038;-79
2023/06/10 04:20:34;;;;;;;0.00;0.00;;;;;;;19.45;56.32;101613.47;5018800;28;20037;-78
2023/06/10 04:23:01;;;;;;;0.00;0.00;;;;;;;19.46;56.74;101623.28;5028466;28;20028;-77
2023/06/10 04:25:28;;;;;;;0.08;0.08;;;;;;;19.48;56.09;101619.56;5024582;28;20065;-78
2023/06/10 04:27:54;;;;;;;0.00;0.00;;;;;;;19.49;56.34;101617.75;5031012;28;20033;-78
2023/06/10 04:30:21;;;;;;;0.70;0.52;;;;;;;19.52;56.37;101623.00;5017302;28;20025;-78
2023/06/10 04:32:48;;;;;;;0.20;0.20;;;;;;;19.55;56.49;101625.53;5028029;28;20064;-77
2023/06/10 04:35:16;;;;;;;0.03;0.03;;;;;;;19.57;56.88;101631.72;5024225;28;20038;-79
2023/06/10 04:37:42;;;;;;;0.00;0.00;;;;;;;19.59;56.98;101627.16;5019203;28;20121;-79
2023/06/10 04:40:09;;;;;;;0.03;0.03;;;;;;;19.60;56.73;101628.91;5041155;28;20136;-78
2023/06/10 04:42:36;;;;;;;0.00;0.00;;;;;;;19.63;56.60;101627.91;5028700;28;20038;-76
2023/06/10 04:45:03;;;;;;;0.30;0.30;;;;;;;19.64;57.09;101630.50;5022569;28;20030;-77
2023/06/10 04:47:33;;;;;;;0.00;0.00;;;;;;;19.67;57.12;101634.88;5021131;28;20032;-77
2023/06/10 04:50:00;;;;;;;0.17;0.17;;;;;;;19.70;57.00;101640.09;5028481;28;20495;-78
2023/06/10 04:52:27;;;;;;;0.10;0.10;;;;;;;19.73;56.91;101637.28;5024159;28;20030;-78
2023/06/10 04:54:53;;;;;;;0.00;0.00;;;;;;;19.76;57.18;101637.13;5020134;28;20096;-79
2023/06/10 04:57:20;;;;;;;0.00;0.00;;;;;;;19.78;57.91;101635.25;5023428;28;20025;-79
2023/06/10 04:59:47;;;;;;;0.03;0.03;;;;;;;19.82;56.60;101638.66;5014700;28;20037;-80
2023/06/10 05:02:13;;;;;;;0.00;0.00;;;;;;;19.88;56.52;101641.09;5018463;28;20049;-78
2023/06/10 05:04:39;;;;;;;0.00;0.00;;;;;;;19.93;56.63;101635.50;5026077;28;20097;-79
2023/06/10 05:07:05;;;;;;;0.20;0.20;;;;;;;19.96;56.50;101641.63;5031362;28;20030;-78
2023/06/10 05:09:32;;;;;;;0.10;0.10;;;;;;;20.03;56.30;101637.69;5018115;28;20093;-79
2023/06/10 05:11:59;;;;;;;0.10;0.10;;;;;;;20.07;56.58;101638.41;5024085;28;20030;-78
2023/06/10 05:14:25;;;;;;;0.00;0.00;;;;;;;20.10;56.83;101637.38;5015394;28;20025;-78
2023/06/10 05:16:51;;;;;;;0.10;0.10;;;;;;;20.16;56.43;101637.09;5012304;28;20045;-79
2023/06/10 05:19:18;;;;;;;0.00;0.00;;;;;;;20.21;56.29;101640.44;5016284;28;20029;-80
2023/06/10 05:21:45;;;;;;;0.10;0.10;;;;;;;20.26;56.62;101634.84;5023292;28;20036;-80
2023/06/10 05:24:11;;;;;;;0.00;0.00;;;;;;;20.30;56.37;101639.13;5020327;28;20029;-80
2023/06/10 05:26:38;;;;;;;0.10;0.10;;;;;;;20.36;56.25;101634.34;5018525;28;20137;-79
2023/06/10 05:29:05;;;;;;;0.10;0.10;;;;;;;20.43;56.30;101636.72;5031190;28;20026;-79
2023/06/10 05:31:31;;;;;;;0.10;0.10;;;;;;;20.48;55.84;101632.84;5029905;28;20045;-79
2023/06/10 05:33:58;;;;;;;0.10;0.10;;;;;;;20.55;55.73;101636.13;5019895;28;20038;-80
2023/06/10 05:36:26;;;;;;;0.10;0.10;;;;;;;20.60;56.13;101636.75;5023232;28;20057;-79
2023/06/10 05:38:58;;;;;;;4.72;0.32;;;;;;;20.68;55.42;101637.22;5025898;28;20034;-78
2023/06/10 05:41:25;;;;;;;;;;;;;;;20.88;55.23;101630.00;5029669;28;20041;-79
2023/06/10 05:43:51;;;;;;;0.10;0.10;;;;;;;20.82;55.58;101627.63;5026395;28;19913;-81
2023/06/10 05:46:17;;;;;;;0.10;0.10;;;;;;;20.87;56.09;101636.34;5026036;28;20436;-81
2023/06/10 05:48:43;;;;;;;0.08;0.08;;;;;;;20.89;56.15;101631.75;5021555;28;20029;-81
2023/06/10 05:51:10;;;;;;;0.10;0.10;;;;;;;20.96;55.08;101633.19;5025110;28;20026;-81
2023/06/10 05:53:36;;;;;;;0.10;0.10;;;;;;;21.07;55.01;101642.53;5024284;28;20057;-79
2023/06/10 05:56:02;;;;;;;0.08;0.08;;;;;;;21.12;55.17;101638.66;5021289;28;20026;-80
2023/06/10 05:58:28;;;;;;;0.10;0.10;;;;;;;21.20;54.98;101645.44;5027543;28;20036;-80
2023/06/10 06:00:54;;;;;;;0.05;0.05;;;;;;;21.26;55.04;101646.03;5025522;28;20065;-79
2023/06/10 06:03:21;;;;;;;0.20;0.20;;;;;;;21.33;54.32;101636.66;5027422;28;20029;-78
2023/06/10 06:05:47;;;;;;;0.00;0.00;;;;;;;21.37;54.29;101644.59;5041009;28;20029;-78
2023/06/10 06:08:17;;;;;;;0.10;0.10;;;;;;;21.46;54.14;101641.41;5028882;28;20101;-79
2023/06/10 06:10:43;;;;;;;0.10;0.10;;;;;;;21.53;53.90;101639.25;5035381;28;20018;-79
2023/06/10 06:13:09;;;;;;;0.00;0.00;;;;;;;21.58;53.52;101635.41;5023265;28;20113;-81
2023/06/10 06:15:35;;;;;;;0.20;0.20;;;;;;;21.65;53.20;101636.78;5021265;28;20044;-81
2023/06/10 06:18:01;;;;;;;0.00;0.00;;;;;;;21.73;52.75;101638.19;5030874;28;20042;-79
2023/06/10 06:20:27;;;;;;;0.10;0.10;;;;;;;21.83;53.17;101633.19;5031627;28;20040;-79
2023/06/10 06:22:54;;;;;;;0.30;0.30;;;;;;;21.91;52.77;101647.13;5029897;28;20045;-78
2023/06/10 06:25:20;;;;;;;0.10;0.10;;;;;;;21.96;52.66;101637.81;5034829;28;20053;-79
2023/06/10 06:27:46;;;;;;;0.10;0.10;;;;;;;22.02;52.30;101643.81;5029878;28;20042;-79
2023/06/10 06:30:12;;;;;;;0.10;0.10;;;;;;;22.07;52.37;101641.72;5031378;28;20116;-81
2023/06/10 06:32:38;;;;;;;0.00;0.00;;;;;;;22.14;52.05;101645.81;5031447;28;20136;-78
2023/06/10 06:35:07;;;;;;;1.30;0.60;;;;;;;22.19;51.92;101640.16;5030757;28;20029;-79
2023/06/10 06:37:34;;;;;;;0.25;0.25;;;;;;;22.25;51.22;101635.28;5038361;28;20037;-79
2023/06/10 06:40:00;;;;;;;0.45;0.45;;;;;;;22.37;51.39;101632.84;5029802;28;20049;-79
2023/06/10 06:42:26;;;;;;;0.10;0.10;;;;;;;22.43;51.12;101637.91;5021977;28;20041;-80
2023/06/10 06:44:52;;;;;;;0.05;0.05;;;;;;;22.52;51.58;101637.41;5020990;28;20257;-77
2023/06/10 06:47:19;;;;;;;0.10;0.10;;;;;;;22.58;51.40;101645.16;5016936;28;20038;-78
2023/06/10 06:49:46;;;;;;;0.10;0.10;;;;;;;22.67;51.16;101645.56;5026064;28;20030;-77
2023/06/10 06:52:13;;;;;;;1.20;0.82;;;;;;;22.76;51.22;101645.03;5025276;28;20026;-76
2023/06/10 06:54:39;;;;;;;0.00;0.00;;;;;;;22.85;51.33;101649.88;5033244;28;20036;-77
2023/06/10 06:57:06;;;;;;;0.15;0.15;;;;;;;22.89;50.44;101637.94;5046691;28;20038;-76
2023/06/10 06:59:33;;;;;;;0.10;0.10;;;;;;;23.00;50.34;101639.13;5032939;28;20076;-77
2023/06/10 07:01:59;;;;;;;0.20;0.20;;;;;;;23.08;50.03;101644.97;5031888;28;20068;-76
2023/06/10 07:04:25;;;;;;;0.10;0.10;;;;;;;23.18;49.94;101648.88;5014033;28;20029;-77
2023/06/10 07:06:51;;;;;;;0.10;0.10;;;;;;;23.25;50.08;101644.84;5017164;28;20032;-78
2023/06/10 07:09:17;;;;;;;0.55;0.55;;;;;;;23.34;49.85;101651.50;5025830;28;20089;-78
2023/06/10 07:11:43;;;;;;;0.10;0.10;;;;;;;23.43;48.74;101652.78;5028571;28;20030;-78
2023/06/10 07:14:09;;;;;;;0.10;0.10;;;;;;;23.52;49.37;101649.50;5029224;28;20037;-78
2023/06/10 07:16:36;;;;;;;0.20;0.20;;;;;;;23.61;49.49;101655.31;5020575;28;20578;-78
2023/06/10 07:19:02;;;;;;;0.30;0.30;;;;;;;23.70;49.63;101646.59;5010839;28;20053;-79
2023/06/10 07:21:29;;;;;;;0.10;0.10;;;;;;;23.76;48.81;101646.22;5007782;28;20038;-80
2023/06/10 07:23:55;;;;;;;0.10;0.10;;;;;;;23.87;48.10;101650.94;5011360;28;20117;-77
2023/06/10 07:26:23;;;;;;;0.40;0.40;;;;;;;23.83;47.41;101647.56;5027573;28;20058;-78
2023/06/10 07:28:49;;;;;;;0.38;0.35;;;;;;;23.90;47.44;101654.34;5001607;28;20049;-77
2023/06/10 07:31:15;;;;;;;0.10;0.10;;;;;;;24.06;47.52;101656.09;5013573;28;20030;-77
2023/06/10 07:33:43;;;;;;;0.52;0.52;;;;;;;24.16;48.51;101654.53;5016092;28;20034;-78
2023/06/10 07:36:09;;;;;;;0.80;0.80;;;;;;;24.25;46.38;101653.06;5016045;28;20163;-78
2023/06/10 07:38:35;;;;;;;0.30;0.20;;;;;;;24.38;47.32;101653.13;5022618;28;20289;-78
2023/06/10 07:41:02;;;;;;;0.30;0.30;;;;;;;24.44;46.62;101641.88;5021943;28;20057;-77
2023/06/10 07:43:28;;;;;;;0.10;0.10;;;;;;;24.59;46.93;101656.25;5025691;28;20021;-78
2023/06/10 07:45:54;;;;;;;0.57;0.57;;;;;;;24.70;46.85;101656.44;5021067;28;20133;-79
2023/06/10 07:48:20;;;;;;;0.22;0.22;;;;;;;24.76;46.65;101657.88;5023468;28;20048;-77
2023/06/10 07:50:46;;;;;;;0.05;0.05;;;;;;;24.87;46.98;101657.13;5024186;28;20034;-78
2023/06/10 07:53:12;;;;;;;1.38;1.33;;;;;;;24.97;47.17;101660.09;5010487;28;20037;-79
2023/06/10 07:55:38;;;;;;;0.50;0.50;;;;;;;25.08;46.67;101653.94;5039932;28;20398;-78
2023/06/10 07:58:04;;;;;;;0.20;0.20;;;;;;;25.18;46.80;101649.59;5023200;28;20049;-80
2023/06/10 08:00:34;;;;;;;0.65;0.38;;;;;;;25.32;46.49;101654.06;5023645;28;20029;-80
2023/06/10 08:03:00;;;;;;;0.65;0.65;;;;;;;25.43;46.28;101650.66;5022072;28;20040;-79
2023/06/10 08:05:26;;;;;;;0.08;0.08;;;;;;;25.53;45.85;101651.72;5029313;28;20021;-79
2023/06/10 08:07:52;;;;;;;0.10;0.10;;;;;;;25.67;46.35;101658.88;5030607;28;20062;-79
2023/06/10 08:10:18;;;;;;;1.23;1.17;;;;;;;25.77;46.10;101657.25;5019090;28;20076;-79
2023/06/10 08:12:45;;;;;;;0.10;0.10;;;;;;;25.87;45.94;101653.88;5021562;28;20093;-80
2023/06/10 08:15:11;;;;;;;0.10;0.10;;;;;;;25.97;45.68;101655.81;5021899;28;20030;-77
2023/06/10 08:17:38;;;;;;;0.30;0.30;;;;;;;26.06;46.20;101656.16;5023396;28;20499;-81
2023/06/10 08:20:05;;;;;;;0.28;0.28;;;;;;;26.18;46.39;101648.94;5022472;28;20021;-81
2023/06/10 08:22:32;;;;;;;0.45;0.45;;;;;;;26.30;45.61;101650.75;5025280;28;20193;-81
2023/06/10 08:24:58;;;;;;;0.10;0.10;;;;;;;26.40;45.46;101654.53;5026258;28;20034;-79
2023/06/10 08:27:24;;;;;;;0.68;0.43;;;;;;;26.44;44.96;101645.19;5025660;28;20338;-80
2023/06/10 08:29:51;;;;;;;0.10;0.10;;;;;;;26.55;45.07;101651.66;5040936;28;20026;-79
2023/06/10 08:32:17;;;;;;;3.80;0.35;;;;;;;26.62;43.65;101650.22;5031819;28;20038;-80
2023/06/10 08:34:43;;;;;;;0.38;0.38;;;;;;;26.63;43.57;101651.91;5024898;28;20034;-80
2023/06/10 08:37:09;;;;;;;0.45;0.45;;;;;;;26.69;43.47;101651.47;5023580;28;20021;-77
2023/06/10 08:39:35;;;;;;;0.20;0.20;;;;;;;26.86;43.90;101643.91;5029907;28;20105;-81
2023/06/10 08:44:42;;;;;;;0.20;0.20;;;;;;;27.09;44.73;101653.88;5150786;27;20745;-81
2023/06/10 08:47:17;;;;;;;0.20;0.20;;;;;;;27.25;43.38;101649.97;5143607;27;20042;-81
2023/06/10 08:49:47;;;;;;;0.68;0.68;;;;;;;27.38;44.02;101652.59;5135070;27;20055;-81
2023/06/10 08:52:17;;;;;;;0.30;0.30;;;;;;;27.44;43.04;101653.00;5135340;27;20024;-81
2023/06/10 08:55:07;;;;;;;1.60;0.38;;;;;;;27.54;42.21;101649.53;5135269;27;20046;-81
2023/06/10 08:57:48;;;;;;;2.40;1.20;;;;;;;27.65;41.30;101644.09;5137543;27;20058;-81
2023/06/10 09:00:34;;;;;;;0.17;0.17;;;;;;;27.76;42.80;101649.56;5141684;27;20114;-82
2023/06/10 09:06:36;;;;;;;0.63;0.63;;;;;;;27.93;41.15;101644.63;5088827;28;20495;-81
2023/06/10 09:09:08;;;;;;;0.73;0.63;;;;;;;28.01;41.64;101644.84;5087564;28;20037;-81
2023/06/10 09:11:34;;;;;;;0.10;0.10;;;;;;;28.13;41.79;101648.44;5094254;28;20040;-81
2023/06/10 09:14:09;;;;;;;0.22;0.22;;;;;;;28.31;41.33;101653.38;5088216;28;20118;-81
2023/06/10 09:16:46;;;;;;;0.25;0.25;;;;;;;28.36;40.34;101651.13;5094949;28;20127;-80
2023/06/10 09:19:13;;;;;;;0.30;0.30;;;;;;;28.43;40.08;101648.78;5093461;28;20077;-79
2023/06/10 09:21:39;;;;;;;0.20;0.20;;;;;;;28.55;40.63;101658.66;5086588;28;20028;-80
2023/06/10 09:24:09;;;;;;;0.40;0.40;;;;;;;28.68;41.08;101648.44;5090296;28;20036;-80
2023/06/10 09:26:35;;;;;;;0.85;0.32;;;;;;;28.75;39.62;101646.09;5085329;28;20050;-80
2023/06/10 09:29:09;;;;;;;0.05;0.05;;;;;;;28.88;38.81;101648.63;5083081;28;20119;-81
2023/06/10 09:31:38;;;;;;;0.30;0.30;;;;;;;28.98;40.28;101645.97;5111227;28;20047;-80
2023/06/10 09:34:10;;;;;;;1.23;0.68;;;;;;;29.05;37.87;101644.47;5093354;28;20028;-81
2023/06/10 09:36:38;;;;;;;0.20;0.20;;;;;;;29.11;38.52;101643.03;5080424;28;20583;-81
2023/06/10 09:39:05;;;;;;;0.28;0.28;;;;;;;29.17;38.39;101642.50;5087626;28;20040;-83
2023/06/10 09:41:39;;;;;;;0.10;0.10;;;;;;;29.31;38.77;101644.06;5094998;28;20032;-82
2023/06/10 09:44:13;;;;;;;0.20;0.20;;;;;;;29.43;38.76;101650.31;5132910;27;20043;-81
2023/06/10 09:46:39;;;;;;;0.43;0.43;;;;;;;29.45;39.12;101649.19;5143991;27;20020;-82
2023/06/10 09:49:05;;;;;;;0.17;0.17;;;;;;;29.56;38.09;101647.38;5123418;27;20055;-81
2023/06/10 09:51:34;;;;;;;0.85;0.63;;;;;;;29.59;38.09;101642.50;5135846;27;20039;-81
2023/06/10 09:54:03;;;;;;;0.38;0.38;;;;;;;29.77;39.08;101642.75;5128392;27;20028;-81
2023/06/10 09:56:37;;;;;;;0.45;0.45;;;;;;;29.94;38.97;101634.91;5116243;27;20032;-81
2023/06/10 09:59:06;;;;;;;0.35;0.35;;;;;;;30.02;38.33;101640.56;5114383;28;20031;-81
2023/06/10 10:01:33;;;;;;;0.20;0.20;;;;;;;30.10;37.03;101639.88;5110349;27;20073;-78
2023/06/10 10:04:00;;;;;;;0.00;0.00;;;;;;;30.14;35.46;101630.38;5112270;28;20039;-80
2023/06/10 10:06:27;;;;;;;0.95;0.57;;;;;;;30.22;35.95;101644.22;5111946;28;20172;-82
2023/06/10 10:08:53;;;;;;;0.35;0.35;;;;;;;30.25;35.09;101638.44;5118460;28;20035;-81
2023/06/10 10:11:22;;;;;;;0.10;0.10;;;;;;;30.37;35.22;101639.19;5111233;28;20027;-80
2023/06/10 10:13:51;;;;;;;0.52;0.52;;;;;;;30.41;37.40;101637.91;5112268;28;20372;-80
2023/06/10 10:16:20;;;;;;;0.10;0.10;;;;;;;30.49;36.85;101623.53;5105371;28;20059;-80
2023/06/10 10:18:51;;;;;;;0.20;0.20;;;;;;;30.58;36.49;101625.44;5110095;28;20054;-80
2023/06/10 10:21:22;;;;;;;0.00;0.00;;;;;;;30.69;36.60;101631.78;5113190;28;20039;-82
2023/06/10 10:26:27;;;;;;;0.13;0.13;;;;;;;30.92;36.16;101626.88;5113769;27;20400;-79
2023/06/10 10:29:05;;;;;;;0.32;0.32;;;;;;;31.01;36.60;101622.41;5094803;28;20029;-82
2023/06/10 10:31:35;;;;;;;0.10;0.10;;;;;;;31.02;33.13;101615.88;5098750;28;20025;-81
2023/06/10 10:34:06;;;;;;;0.30;0.30;;;;;;;31.06;34.28;101620.06;5096990;28;20051;-80
2023/06/10 10:36:32;;;;;;;0.38;0.38;;;;;;;31.15;36.70;101619.22;5101576;28;20023;-79
2023/06/10 10:39:01;;;;;;;0.20;0.20;;;;;;;31.22;35.63;101614.88;5098292;28;20032;-80
2023/06/10 10:41:30;;;;;;;0.68;0.68;;;;;;;31.21;34.11;101613.16;5099123;28;20088;-81
2023/06/10 10:43:57;;;;;;;0.30;0.30;;;;;;;31.26;34.55;101608.09;5088786;28;20024;-81
2023/06/10 10:46:23;;;;;;;0.43;0.43;;;;;;;31.39;34.54;101609.63;5089894;28;20078;-80
2023/06/10 10:48:54;;;;;;;0.75;0.75;;;;;;;31.51;34.58;101602.97;5099169;28;20027;-79
2023/06/10 10:51:22;;;;;;;3.50;0.50;;;;;;;31.60;34.88;101610.28;5101466;28;20012;-79
2023/06/10 10:54:09;;;;;;;1.10;0.90;;;;;;;31.73;35.24;101606.38;5094862;28;20043;-79
2023/06/10 10:56:35;;;;;;;0.20;0.20;;;;;;;31.78;34.41;101604.91;5086508;28;20482;-80
2023/06/10 10:59:06;;;;;;;0.30;0.30;;;;;;;31.88;32.99;101610.31;5099006;28;20444;-78
2023/06/10 11:01:47;;;;;;;3.23;0.53;;;;;;;32.05;33.54;101602.28;5090213;28;20028;-78
2023/06/10 11:04:17;;;;;;;0.57;0.20;;;;;;;32.00;33.32;101602.78;5081447;28;20035;-78
2023/06/10 11:06:53;;;;;;;7.03;0.63;;;;;;;32.09;32.93;101601.00;5095275;28;20529;-79
2023/06/10 11:09:34;;;;;;;0.10;0.10;;;;;;;32.24;33.48;101593.13;5096160;28;20035;-78
2023/06/10 11:12:00;;;;;;;0.10;0.10;;;;;;;32.20;32.91;101598.06;5097542;28;20033;-79
2023/06/10 11:14:29;;;;;;;0.50;0.50;;;;;;;32.29;32.72;101606.34;5124261;28;20025;-79
2023/06/10 11:16:59;;;;;;;0.38;0.38;;;;;;;32.41;33.64;101594.13;5093517;27;20057;-78
2023/06/10 11:19:46;;;;;;;0.05;0.05;;;;;;;32.46;30.50;101589.03;5084291;28;20033;-77
2023/06/10 11:22:18;;;;;;;0.15;0.15;;;;;;;32.51;31.98;101586.72;5104547;28;20039;-78
2023/06/10 11:24:50;;;;;;;0.10;0.10;;;;;;;32.56;32.73;101592.59;5113455;28;20050;-78
2023/06/10 11:27:18;;;;;;;0.32;0.32;;;;;;;32.63;31.39;101590.06;5089001;28;20035;-79
2023/06/10 11:32:51;;;;;;;1.40;1.02;;;;;;;32.74;29.99;101577.97;5135358;27;20359;-78
2023/06/10 11:35:18;;;;;;;0.20;0.20;;;;;;;32.79;29.43;101578.38;5119481;28;20020;-78
2023/06/10 11:37:44;;;;;;;0.63;0.63;;;;;;;32.90;30.13;101571.78;5121124;28;20029;-78
2023/06/10 11:40:11;;;;;;;0.00;0.00;;;;;;;32.85;30.07;101568.63;5108694;28;20032;-79
2023/06/10 11:42:40;;;;;;;0.20;0.20;;;;;;;32.90;31.08;101567.16;5108543;28;20008;-80
2023/06/10 11:45:08;;;;;;;0.20;0.20;;;;;;;32.89;31.28;101576.41;5107888;28;20035;-80